createdAt,value
2024-03-31T00:05:42.537Z,15.30
2024-03-31T00:15:42.460Z,14.50
2024-03-31T00:25:42.279Z,13.70
2024-03-31T00:35:42.092Z,13.90
2024-03-31T00:45:41.829Z,14.00
2024-03-31T00:55:41.661Z,15.30
2024-03-31T01:05:41.406Z,16.60
2024-03-31T01:15:41.262Z,17.00
2024-03-31T01:25:40.969Z,17.40
2024-03-31T01:35:40.834Z,18.50
2024-03-31T01:45:40.575Z,17.50
2024-03-31T01:55:40.351Z,17.40
2024-03-31T02:05:40.121Z,17.50
2024-03-31T02:15:39.914Z,16.10
2024-03-31T02:25:39.684Z,17.00
2024-03-31T02:35:39.442Z,15.30
2024-03-31T02:45:42.494Z,13.90
2024-03-31T02:55:38.995Z,13.40
2024-03-31T03:05:38.751Z,12.10
2024-03-31T03:15:38.536Z,9.60
2024-03-31T03:25:38.377Z,8.90
2024-03-31T03:35:38.042Z,8.10
2024-03-31T03:45:37.842Z,7.60
2024-03-31T03:55:37.604Z,7.10
2024-03-31T04:05:37.498Z,5.70
2024-03-31T04:15:37.437Z,6.30
2024-03-31T04:25:37.241Z,5.90
2024-03-31T04:35:37.116Z,6.00
2024-03-31T04:45:36.979Z,5.40
2024-03-31T04:55:36.933Z,4.90
2024-03-31T05:05:44.478Z,4.80
2024-03-31T05:15:36.656Z,4.20
2024-03-31T05:25:36.577Z,4.20
2024-03-31T05:35:36.441Z,3.90
2024-03-31T05:45:36.354Z,3.80
2024-03-31T05:55:38.854Z,4.00
2024-03-31T06:05:36.076Z,4.20
2024-03-31T06:15:35.970Z,3.40
2024-03-31T06:25:35.856Z,3.30
2024-03-31T06:35:35.818Z,3.40
2024-03-31T06:45:35.771Z,3.30
2024-03-31T06:55:35.794Z,2.60
2024-03-31T07:05:35.784Z,2.80
2024-03-31T07:15:35.833Z,2.50
2024-03-31T07:25:41.281Z,2.90
2024-03-31T07:35:35.939Z,2.50
2024-03-31T07:45:36.075Z,2.60
2024-03-31T07:55:36.071Z,2.70
2024-03-31T08:05:36.103Z,3.80
2024-03-31T08:15:36.191Z,2.80
2024-03-31T08:25:41.318Z,2.90
2024-03-31T08:35:40.953Z,2.90
2024-03-31T08:45:40.571Z,2.80
2024-03-31T08:55:40.201Z,2.80
2024-03-31T09:05:39.817Z,3.00
2024-03-31T09:15:39.493Z,3.00
2024-03-31T09:25:39.088Z,3.00
2024-03-31T09:35:38.757Z,2.90
2024-03-31T09:45:38.484Z,2.60
2024-03-31T09:55:43.624Z,3.00
2024-03-31T10:05:43.278Z,2.90
2024-03-31T10:15:42.873Z,3.40
2024-03-31T10:25:42.523Z,3.20
2024-03-31T10:35:42.134Z,3.20
2024-03-31T10:45:43.079Z,3.00
2024-03-31T10:55:41.641Z,3.30
2024-03-31T11:05:46.804Z,3.00
2024-03-31T11:15:46.383Z,3.20
2024-03-31T11:25:46.017Z,3.40
2024-03-31T11:35:45.636Z,3.20
2024-03-31T11:45:45.274Z,3.20
2024-03-31T11:55:44.902Z,2.90
2024-03-31T12:05:50.037Z,2.80
2024-03-31T12:15:49.639Z,3.30
2024-03-31T12:25:49.285Z,3.20
2024-03-31T12:35:48.887Z,3.10
2024-03-31T12:45:48.541Z,3.20
2024-03-31T12:55:53.644Z,3.10
2024-03-31T13:05:53.246Z,2.70
2024-03-31T13:15:52.920Z,4.10
2024-03-31T13:25:52.538Z,3.00
2024-03-31T13:35:52.136Z,3.30
2024-03-31T13:45:57.310Z,3.80
2024-03-31T13:55:56.921Z,3.10
2024-03-31T14:05:56.580Z,3.40
2024-03-31T14:15:56.308Z,3.30
2024-03-31T14:25:55.829Z,3.20
2024-03-31T14:36:00.979Z,3.20
2024-03-31T14:46:00.593Z,3.30
2024-03-31T14:56:00.205Z,4.10
2024-03-31T15:05:59.867Z,4.10
2024-03-31T15:15:59.480Z,3.60
2024-03-31T15:26:04.670Z,3.50
2024-03-31T15:36:04.436Z,3.50
2024-03-31T15:46:03.911Z,3.50
2024-03-31T15:56:03.539Z,3.70
2024-03-31T16:06:03.179Z,3.30
2024-03-31T16:16:08.347Z,3.70
2024-03-31T16:26:07.975Z,3.50
2024-03-31T16:36:07.608Z,3.70
2024-03-31T16:46:07.270Z,3.60
2024-03-31T16:56:06.904Z,3.20
2024-03-31T17:06:06.956Z,2.40
2024-03-31T17:16:12.068Z,2.40
2024-03-31T17:26:11.702Z,2.30
2024-03-31T17:36:11.317Z,2.40
2024-03-31T17:46:10.997Z,2.50
2024-03-31T17:56:10.556Z,2.20
2024-03-31T18:06:10.165Z,2.80
2024-03-31T18:16:11.743Z,2.80
2024-03-31T18:26:09.416Z,2.70
2024-03-31T18:36:09.201Z,4.40
2024-03-31T18:46:14.346Z,4.00
2024-03-31T18:56:14.477Z,3.00
2024-03-31T19:06:13.554Z,3.50
2024-03-31T19:16:13.173Z,4.00
2024-03-31T19:26:12.802Z,3.50
2024-03-31T19:36:12.417Z,2.80
2024-03-31T19:46:12.028Z,2.70
2024-03-31T19:56:11.639Z,2.70
2024-03-31T20:06:11.284Z,2.70
2024-03-31T20:16:10.911Z,2.70
2024-03-31T20:26:10.729Z,2.30
2024-03-31T20:36:10.763Z,2.20
2024-03-31T20:46:10.826Z,2.40
2024-03-31T20:56:10.872Z,2.40
2024-03-31T21:06:10.928Z,2.30
2024-03-31T21:16:11.026Z,2.30
2024-03-31T21:26:10.915Z,2.30
2024-03-31T21:36:10.893Z,2.10
2024-03-31T21:46:10.879Z,2.00
2024-03-31T21:56:10.837Z,2.50
2024-03-31T22:06:10.889Z,2.30
2024-03-31T22:16:10.908Z,2.10
2024-03-31T22:26:10.888Z,2.30
2024-03-31T22:36:10.872Z,2.50
2024-03-31T22:46:10.837Z,2.20
2024-03-31T22:56:10.783Z,2.10
2024-03-31T23:06:10.769Z,1.90
2024-03-31T23:16:10.692Z,1.90
2024-03-31T23:26:10.667Z,2.10
2024-03-31T23:36:10.662Z,2.00
2024-03-31T23:46:10.668Z,2.00
2024-03-31T23:56:10.655Z,2.00
